Time;durP1;ratioP1;P1;durP2;ratioP2;P2;SDS_P1;SDS_P2;PMS_P1;PMS_P2;Temp;Humidity;BMP_temperature;BMP_pressure;BME280_temperature;BME280_humidity;BME280_pressure;Samples;Min_cycle;Max_cycle;Signal;HPM_P1;HPM_P2
2024/03/05 00:01:02;;;;;;;0.10;0.10;;;;;;;7.62;74.02;99318.56;7370039;19;20006;-64
2024/03/05 00:03:27;;;;;;;0.08;0.08;;;;;;;7.41;74.11;99273.38;7368736;19;20228;-64
2024/03/05 00:05:54;;;;;;;0.00;0.00;;;;;;;7.61;74.31;99306.50;7370488;19;20604;-63
2024/03/05 00:08:20;;;;;;;0.10;0.10;;;;;;;7.63;74.38;99309.03;7366634;19;20006;-63
2024/03/05 00:10:46;;;;;;;0.10;0.10;;;;;;;7.64;73.80;99310.72;7368153;19;20340;-63
2024/03/05 00:13:12;;;;;;;0.10;0.10;;;;;;;7.64;73.83;99295.13;7367038;19;20347;-64
2024/03/05 00:15:39;;;;;;;0.10;0.10;;;;;;;7.60;74.09;99289.19;7371938;19;20409;-62
2024/03/05 00:18:05;;;;;;;0.10;0.10;;;;;;;7.62;73.95;99295.19;7366057;19;20018;-64
2024/03/05 00:20:34;;;;;;;0.00;0.00;;;;;;;7.62;74.07;99312.53;7371287;19;20105;-63
2024/03/05 00:22:59;;;;;;;0.10;0.10;;;;;;;7.61;73.82;99301.28;7368415;19;20002;-63
2024/03/05 00:25:26;;;;;;;0.10;0.10;;;;;;;7.59;74.10;99310.88;7369490;19;20738;-64
2024/03/05 00:27:51;;;;;;;0.10;0.10;;;;;;;7.58;73.93;99306.56;7367336;19;19999;-63
2024/03/05 00:30:18;;;;;;;0.10;0.10;;;;;;;7.49;74.02;99299.94;7372503;19;20022;-63
2024/03/05 00:32:44;;;;;;;0.10;0.10;;;;;;;7.47;73.97;99306.09;7368435;19;20022;-64
2024/03/05 00:35:09;;;;;;;0.10;0.10;;;;;;;7.60;73.79;99319.50;7370359;19;20026;-63
2024/03/05 00:37:35;;;;;;;0.00;0.00;;;;;;;7.60;73.57;99320.34;7368919;19;20022;-63
2024/03/05 00:40:04;;;;;;;0.10;0.10;;;;;;;7.52;74.15;99323.22;7370279;19;20025;-64
2024/03/05 00:42:30;;;;;;;0.00;0.00;;;;;;;7.58;74.00;99340.34;7366038;19;20417;-63
2024/03/05 00:44:55;;;;;;;0.10;0.10;;;;;;;7.56;74.03;99329.16;7367741;19;20082;-63
2024/03/05 00:47:21;;;;;;;0.10;0.10;;;;;;;7.53;73.98;99334.44;7365849;19;20477;-63
2024/03/05 00:49:46;;;;;;;0.10;0.10;;;;;;;7.57;73.79;99341.25;7363100;19;20017;-63
2024/03/05 00:52:12;;;;;;;0.10;0.10;;;;;;;7.52;73.57;99335.34;7350421;19;19994;-62
2024/03/05 00:54:37;;;;;;;0.10;0.10;;;;;;;7.54;73.86;99337.00;7370540;19;20002;-62
2024/03/05 00:57:03;;;;;;;0.10;0.10;;;;;;;7.55;73.89;99337.84;7366024;19;20037;-63
2024/03/05 00:59:30;;;;;;;0.10;0.10;;;;;;;7.53;73.73;99330.09;7367510;19;20078;-63
2024/03/05 01:01:55;;;;;;;0.10;0.10;;;;;;;7.47;74.06;99335.50;7370117;19;20018;-63
2024/03/05 01:04:21;;;;;;;0.08;0.08;;;;;;;7.52;73.74;99338.81;7370848;19;20503;-63
2024/03/05 01:06:46;;;;;;;0.10;0.10;;;;;;;7.51;74.23;99337.09;7366357;19;20010;-63
2024/03/05 01:09:16;;;;;;;0.10;0.10;;;;;;;7.50;73.88;99340.63;7368267;19;20006;-63
2024/03/05 01:11:42;;;;;;;0.00;0.00;;;;;;;7.49;74.02;99349.28;7369178;19;20002;-62
2024/03/05 01:14:08;;;;;;;0.10;0.10;;;;;;;7.48;74.03;99346.75;7369953;19;20824;-63
2024/03/05 01:16:33;;;;;;;0.10;0.10;;;;;;;7.26;73.99;99312.81;7365074;19;20031;-63
2024/03/05 01:18:59;;;;;;;0.10;0.10;;;;;;;7.44;73.77;99350.31;7367597;19;20014;-63
2024/03/05 01:21:25;;;;;;;0.10;0.10;;;;;;;7.42;74.23;99346.94;7367840;19;20014;-61
2024/03/05 01:23:50;;;;;;;0.10;0.10;;;;;;;7.38;73.61;99346.19;7365457;19;20007;-63
2024/03/05 01:26:16;;;;;;;0.10;0.10;;;;;;;7.38;73.86;99350.53;7366201;19;20014;-63
2024/03/05 01:28:41;;;;;;;0.10;0.10;;;;;;;7.36;74.37;99360.97;7366607;19;20412;-63
2024/03/05 01:31:08;;;;;;;0.00;0.00;;;;;;;7.34;73.82;99359.31;7363251;19;20444;-63
2024/03/05 01:33:36;;;;;;;0.10;0.10;;;;;;;7.32;74.11;99367.16;7363228;19;20482;-63
2024/03/05 01:36:03;;;;;;;0.03;0.03;;;;;;;7.27;74.24;99366.44;7365272;19;20140;-63
2024/03/05 01:38:29;;;;;;;0.00;0.00;;;;;;;7.28;74.72;99365.53;7367397;19;20470;-63
2024/03/05 01:40:54;;;;;;;0.08;0.08;;;;;;;7.24;74.65;99367.38;7364228;19;20359;-62
2024/03/05 01:43:20;;;;;;;0.00;0.00;;;;;;;7.22;74.43;99370.91;7364746;19;20006;-63
2024/03/05 01:45:45;;;;;;;0.10;0.10;;;;;;;7.20;74.35;99383.97;7362186;19;20326;-63
2024/03/05 01:48:13;;;;;;;0.10;0.10;;;;;;;7.05;73.95;99352.41;7363050;19;20106;-63
2024/03/05 01:50:39;;;;;;;0.10;0.10;;;;;;;7.15;74.28;99370.28;7368009;19;20756;-62
2024/03/05 01:53:08;;;;;;;0.10;0.10;;;;;;;7.13;74.72;99381.56;7346245;19;20026;-64
2024/03/05 01:55:37;;;;;;;0.10;0.10;;;;;;;7.07;73.93;99361.84;7364988;19;20429;-63
2024/03/05 01:58:03;;;;;;;0.00;0.00;;;;;;;7.09;74.41;99374.78;7365253;19;19999;-63
2024/03/05 02:00:31;;;;;;;0.10;0.10;;;;;;;7.06;74.97;99380.91;7366999;19;20094;-62
2024/03/05 02:02:56;;;;;;;0.10;0.10;;;;;;;7.04;74.93;99385.28;7366235;19;20014;-62
2024/03/05 02:05:22;;;;;;;0.10;0.10;;;;;;;6.92;74.49;99373.53;7362323;19;19998;-63
2024/03/05 02:07:51;;;;;;;0.10;0.10;;;;;;;7.01;74.51;99394.03;7361851;19;20396;-63
2024/03/05 02:10:17;;;;;;;0.10;0.10;;;;;;;6.99;74.75;99390.63;7367566;19;20015;-63
2024/03/05 02:12:43;;;;;;;0.10;0.10;;;;;;;6.99;74.80;99393.25;7366167;19;20785;-63
2024/03/05 02:15:11;;;;;;;0.10;0.10;;;;;;;6.98;74.77;99394.09;7365950;19;20370;-61
2024/03/05 02:17:40;;;;;;;0.00;0.00;;;;;;;6.91;75.04;99387.41;7362165;19;20019;-63
2024/03/05 02:20:09;;;;;;;0.00;0.00;;;;;;;6.96;74.68;99416.66;7367490;19;20010;-62
2024/03/05 02:22:37;;;;;;;0.10;0.10;;;;;;;6.97;74.84;99418.38;7361142;19;20003;-63
2024/03/05 02:25:03;;;;;;;0.10;0.10;;;;;;;6.89;74.63;99417.72;7363265;19;20009;-63
2024/03/05 02:27:29;;;;;;;0.10;0.10;;;;;;;6.93;74.64;99424.53;7362507;19;20471;-62
2024/03/05 02:29:55;;;;;;;0.10;0.10;;;;;;;6.93;74.80;99421.94;7366667;19;20015;-63
2024/03/05 02:32:21;;;;;;;0.10;0.10;;;;;;;6.92;74.91;99425.44;7362421;19;20019;-61
2024/03/05 02:34:48;;;;;;;0.10;0.10;;;;;;;6.92;74.83;99422.84;7366036;19;20003;-63
2024/03/05 02:37:14;;;;;;;0.10;0.10;;;;;;;6.91;74.73;99423.72;7362072;19;20007;-64
2024/03/05 02:39:39;;;;;;;0.00;0.00;;;;;;;6.91;74.83;99431.53;7357728;19;20010;-62
2024/03/05 02:42:05;;;;;;;0.10;0.10;;;;;;;6.91;75.09;99428.94;7366136;19;20007;-63
2024/03/05 02:44:30;;;;;;;0.10;0.10;;;;;;;6.94;75.14;99448.72;7371262;19;19994;-62
2024/03/05 02:46:56;;;;;;;0.10;0.10;;;;;;;6.82;74.94;99418.78;7377142;19;20295;-62
2024/03/05 02:49:21;;;;;;;0.10;0.10;;;;;;;6.99;74.72;99458.13;7371828;19;20049;-62
2024/03/05 02:51:47;;;;;;;0.10;0.10;;;;;;;7.03;74.92;99449.31;7369608;19;20005;-62
2024/03/05 02:54:13;;;;;;;0.10;0.10;;;;;;;7.07;74.55;99444.06;7371826;19;20002;-62
2024/03/05 02:56:39;;;;;;;0.10;0.10;;;;;;;7.12;74.59;99447.38;7370590;19;20018;-62
2024/03/05 02:59:05;;;;;;;0.10;0.10;;;;;;;7.16;74.75;99433.41;7368877;19;20014;-63
2024/03/05 03:01:30;;;;;;;0.08;0.08;;;;;;;7.08;74.78;99419.81;7372817;19;20023;-62
2024/03/05 03:03:56;;;;;;;0.10;0.10;;;;;;;7.16;74.94;99429.06;7372658;19;20357;-61
2024/03/05 03:06:22;;;;;;;0.05;0.05;;;;;;;7.22;74.31;99422.84;7362100;19;20044;-63
2024/03/05 03:08:47;;;;;;;0.10;0.10;;;;;;;7.29;74.52;99424.34;7373282;19;20037;-62
2024/03/05 03:11:18;;;;;;;0.00;0.00;;;;;;;7.32;73.88;99424.28;7372232;19;19999;-62
2024/03/05 03:13:46;;;;;;;0.00;0.00;;;;;;;7.31;73.91;99417.38;7372664;19;20006;-64
2024/03/05 03:16:12;;;;;;;;;;;;;;;7.35;73.42;99420.72;7372481;19;20010;-62
2024/03/05 03:18:37;;;;;;;0.00;0.00;;;;;;;7.28;73.62;99422.66;7372408;19;20612;-63
2024/03/05 03:21:05;;;;;;;0.10;0.10;;;;;;;7.30;73.63;99431.28;7373263;19;20477;-63
2024/03/05 03:23:31;;;;;;;0.00;0.00;;;;;;;7.29;73.81;99413.97;7370749;19;19999;-64
2024/03/05 03:25:58;;;;;;;0.10;0.10;;;;;;;7.30;73.60;99428.69;7371722;19;20029;-63
2024/03/05 03:28:24;;;;;;;0.00;0.00;;;;;;;7.30;73.52;99423.47;7371281;19;20478;-63
2024/03/05 03:30:54;;;;;;;0.03;0.03;;;;;;;7.29;73.74;99424.34;7373514;19;20015;-63
2024/03/05 03:33:21;;;;;;;0.00;0.00;;;;;;;7.29;73.88;99429.56;7368387;19;20022;-62
2024/03/05 03:35:47;;;;;;;0.10;0.10;;;;;;;7.16;73.28;99402.28;7366244;19;19998;-62
2024/03/05 03:38:12;;;;;;;0.10;0.10;;;;;;;7.34;73.46;99422.47;7370883;19;20478;-63
2024/03/05 03:40:41;;;;;;;0.03;0.03;;;;;;;7.23;73.36;99398.56;7369566;19;20098;-61
2024/03/05 03:43:06;;;;;;;0.00;0.00;;;;;;;7.46;73.36;99436.84;7371748;19;20098;-63
2024/03/05 03:45:32;;;;;;;0.00;0.00;;;;;;;7.49;72.95;99435.00;7370461;19;20018;-62
2024/03/05 03:47:57;;;;;;;0.10;0.10;;;;;;;7.57;73.00;99449.53;7369627;19;20447;-62
2024/03/05 03:50:23;;;;;;;0.10;0.10;;;;;;;7.45;72.51;99410.03;7371757;19;19998;-62
2024/03/05 03:52:49;;;;;;;0.00;0.00;;;;;;;7.59;72.51;99434.72;7368326;19;20073;-62
2024/03/05 03:55:15;;;;;;;0.10;0.10;;;;;;;7.67;72.55;99435.34;7368535;19;20010;-63
2024/03/05 03:57:41;;;;;;;0.10;0.10;;;;;;;7.72;72.16;99441.25;7368595;19;20873;-63
2024/03/05 04:00:16;;;;;;;0.10;0.10;;;;;;;7.69;72.59;99430.94;7362201;19;20005;-62
2024/03/05 04:02:42;;;;;;;0.10;0.10;;;;;;;7.77;71.83;99437.59;7371184;19;20002;-62
2024/03/05 04:05:09;;;;;;;0.00;0.00;;;;;;;7.78;72.19;99439.28;7364095;19;20721;-62
2024/03/05 04:07:36;;;;;;;0.10;0.10;;;;;;;7.86;72.16;99462.47;7371467;19;20497;-62
2024/03/05 04:10:01;;;;;;;0.00;0.00;;;;;;;7.75;72.08;99433.34;7365995;19;20010;-61
2024/03/05 04:12:27;;;;;;;0.10;0.10;;;;;;;7.92;71.42;99453.63;7368862;19;20016;-61
2024/03/05 04:14:53;;;;;;;0.10;0.10;;;;;;;7.96;71.71;99448.28;7365314;19;20006;-61
2024/03/05 04:17:19;;;;;;;0.10;0.10;;;;;;;7.99;71.56;99468.94;7346199;19;20010;-63
2024/03/05 04:19:46;;;;;;;0.10;0.10;;;;;;;8.01;71.68;99467.19;7367914;19;20841;-62
2024/03/05 04:22:14;;;;;;;0.10;0.10;;;;;;;8.03;71.32;99470.56;7367532;19;20573;-63
2024/03/05 04:24:42;;;;;;;0.10;0.10;;;;;;;8.07;71.25;99466.13;7368331;19;20007;-62
2024/03/05 04:27:11;;;;;;;0.00;0.00;;;;;;;8.05;71.37;99468.75;7367807;19;20017;-63
2024/03/05 04:29:41;;;;;;;0.10;0.10;;;;;;;8.11;71.52;99482.47;7366273;19;20054;-62
2024/03/05 04:32:08;;;;;;;0.05;0.05;;;;;;;8.14;70.96;99490.16;7367541;19;20014;-62
2024/03/05 04:34:40;;;;;;;0.05;0.05;;;;;;;8.18;70.99;99482.22;7368283;19;20838;-62
2024/03/05 04:37:11;;;;;;;0.10;0.10;;;;;;;8.18;71.58;99478.78;7368291;19;20081;-62
2024/03/05 04:39:38;;;;;;;0.10;0.10;;;;;;;8.20;71.00;99493.41;7369824;19;20011;-61
2024/03/05 04:42:04;;;;;;;0.10;0.10;;;;;;;8.22;70.69;99490.78;7367756;19;20007;-62
2024/03/05 04:44:29;;;;;;;0.10;0.10;;;;;;;8.23;70.61;99495.06;7362287;19;20017;-62
2024/03/05 04:46:56;;;;;;;0.10;0.10;;;;;;;8.24;70.85;99508.03;7369458;19;20006;-63
2024/03/05 04:49:22;;;;;;;0.00;0.00;;;;;;;8.28;71.03;99521.78;7370204;19;20006;-62
2024/03/05 04:51:49;;;;;;;0.10;0.10;;;;;;;8.26;70.77;99518.38;7366762;19;20014;-62
2024/03/05 04:54:15;;;;;;;0.10;0.10;;;;;;;8.25;70.30;99524.47;7369045;19;20011;-63
2024/03/05 04:56:40;;;;;;;0.00;0.00;;;;;;;8.31;70.48;99532.97;7368361;19;20007;-62
2024/03/05 04:59:06;;;;;;;0.10;0.10;;;;;;;8.33;70.52;99525.94;7359693;19;20007;-62
2024/03/05 05:01:31;;;;;;;0.00;0.00;;;;;;;8.36;70.71;99540.59;7367958;19;19999;-62
2024/03/05 05:03:56;;;;;;;0.00;0.00;;;;;;;8.38;70.18;99546.63;7365747;19;20404;-62
2024/03/05 05:06:22;;;;;;;0.00;0.00;;;;;;;8.41;70.31;99559.53;7361810;19;20014;-62
2024/03/05 05:08:49;;;;;;;0.10;0.10;;;;;;;8.43;70.24;99557.75;7366321;19;20243;-62
2024/03/05 05:11:14;;;;;;;0.10;0.10;;;;;;;8.46;70.43;99568.03;7368669;19;20006;-63
2024/03/05 05:13:40;;;;;;;0.10;0.10;;;;;;;8.48;70.29;99571.44;7366114;19;20022;-62
2024/03/05 05:16:08;;;;;;;0.10;0.10;;;;;;;8.50;70.31;99567.03;7368339;19;20569;-63
2024/03/05 05:18:34;;;;;;;0.10;0.10;;;;;;;8.54;70.21;99570.41;7367051;19;19998;-62
2024/03/05 05:20:59;;;;;;;0.00;0.00;;;;;;;8.56;70.26;99569.44;7369669;19;20749;-62
2024/03/05 05:23:25;;;;;;;0.03;0.03;;;;;;;8.60;70.32;99570.19;7365736;19;20035;-65
2024/03/05 05:25:52;;;;;;;0.10;0.10;;;;;;;8.59;69.82;99573.72;7366574;19;20006;-62
2024/03/05 05:28:17;;;;;;;0.00;0.00;;;;;;;8.65;69.68;99577.84;7366946;19;20484;-62
2024/03/05 05:30:43;;;;;;;0.10;0.10;;;;;;;8.67;69.79;99582.13;7366019;19;20002;-63
2024/03/05 05:33:09;;;;;;;0.00;0.00;;;;;;;8.64;69.81;99557.94;7364521;19;20025;-61
2024/03/05 05:35:37;;;;;;;0.10;0.10;;;;;;;8.74;69.56;99585.38;7368107;19;20778;-62
2024/03/05 05:38:09;;;;;;;0.10;0.10;;;;;;;8.75;69.42;99587.06;7366762;19;20490;-62
2024/03/05 05:40:34;;;;;;;0.10;0.10;;;;;;;8.81;69.50;99589.44;7363862;19;20030;-63
2024/03/05 05:43:00;;;;;;;0.00;0.00;;;;;;;8.82;69.30;99586.81;7366140;19;20014;-62
2024/03/05 05:45:25;;;;;;;0.10;0.10;;;;;;;8.84;68.93;99603.22;7367152;19;20766;-62
2024/03/05 05:47:51;;;;;;;0.10;0.10;;;;;;;8.85;69.29;99598.88;7366797;19;20525;-62
2024/03/05 05:50:18;;;;;;;0.10;0.10;;;;;;;8.83;68.93;99591.13;7366877;19;20010;-62
2024/03/05 05:52:45;;;;;;;0.10;0.10;;;;;;;8.83;68.96;99617.16;7367065;19;20010;-62
2024/03/05 05:55:13;;;;;;;0.10;0.10;;;;;;;8.82;68.98;99604.19;7367650;19;20002;-61
2024/03/05 05:57:38;;;;;;;0.00;0.00;;;;;;;8.79;68.98;99596.47;7364839;19;20011;-62
2024/03/05 06:00:07;;;;;;;0.10;0.10;;;;;;;8.75;70.10;99611.34;7365559;19;20006;-61
2024/03/05 06:02:33;;;;;;;0.10;0.10;;;;;;;8.74;69.55;99648.69;7362164;19;20778;-62
2024/03/05 06:04:59;;;;;;;0.10;0.10;;;;;;;8.71;69.48;99617.53;7364606;19;20014;-62
2024/03/05 06:07:24;;;;;;;0.10;0.10;;;;;;;8.69;69.27;99618.50;7358805;19;20490;-61
2024/03/05 06:09:50;;;;;;;0.10;0.10;;;;;;;8.66;69.92;99636.81;7365471;19;20070;-62
2024/03/05 06:12:15;;;;;;;0.10;0.10;;;;;;;8.63;69.92;99636.91;7364209;19;20692;-62
2024/03/05 06:14:41;;;;;;;0.10;0.10;;;;;;;8.61;69.81;99639.56;7363756;19;20007;-61
2024/03/05 06:17:06;;;;;;;0.10;0.10;;;;;;;8.60;69.56;99650.88;7367901;19;20025;-63
2024/03/05 06:19:32;;;;;;;0.10;0.10;;;;;;;8.57;69.80;99649.22;7371968;19;19999;-62
2024/03/05 06:21:57;;;;;;;0.10;0.10;;;;;;;8.43;69.50;99653.16;7371197;19;20007;-61
2024/03/05 06:24:23;;;;;;;0.10;0.10;;;;;;;8.56;69.88;99663.09;7371431;19;20105;-61
2024/03/05 06:26:49;;;;;;;0.10;0.10;;;;;;;8.53;69.93;99658.03;7372326;19;20077;-61
2024/03/05 06:29:14;;;;;;;0.10;0.10;;;;;;;8.46;69.52;99650.44;7371973;19;20029;-61
2024/03/05 06:31:40;;;;;;;0.10;0.10;;;;;;;8.48;70.26;99675.53;7373163;19;20144;-62
2024/03/05 06:34:10;;;;;;;0.10;0.10;;;;;;;8.26;70.08;99690.03;7370931;19;20037;-62
2024/03/05 06:36:36;;;;;;;0.10;0.10;;;;;;;8.43;69.70;99687.81;7372118;19;20010;-61
2024/03/05 06:39:18;;;;;;;0.10;0.10;;;;;;;8.40;70.28;99705.25;7371444;19;20574;-61
2024/03/05 06:41:47;;;;;;;0.13;0.13;;;;;;;8.37;70.38;99708.81;7371627;19;20018;-61
2024/03/05 06:44:14;;;;;;;0.10;0.10;;;;;;;8.34;70.39;99724.47;7370534;19;20099;-62
2024/03/05 06:46:43;;;;;;;0.10;0.10;;;;;;;8.30;70.19;99728.06;7372727;19;20630;-63
2024/03/05 06:49:14;;;;;;;0.10;0.10;;;;;;;8.28;70.62;99729.84;7374675;19;20534;-62
2024/03/05 06:51:53;;;;;;;0.10;0.10;;;;;;;8.25;70.55;99720.38;7373695;19;20010;-61
2024/03/05 06:57:03;;;;;;;0.10;0.10;;;;;;;8.16;71.16;99745.78;7372381;19;20397;-62
2024/03/05 06:59:29;;;;;;;0.10;0.10;;;;;;;8.12;71.43;99754.59;7367131;19;20007;-62
2024/03/05 07:01:55;;;;;;;0.10;0.10;;;;;;;8.09;71.62;99749.47;7371344;19;20046;-63
2024/03/05 07:04:21;;;;;;;0.10;0.10;;;;;;;7.98;71.79;99768.81;7371198;19;20494;-62
2024/03/05 07:06:47;;;;;;;0.10;0.10;;;;;;;7.99;72.67;99770.53;7370608;19;20025;-63
2024/03/05 07:09:12;;;;;;;0.05;0.05;;;;;;;7.97;72.27;99787.06;7370502;19;20026;-64
2024/03/05 07:11:38;;;;;;;0.10;0.10;;;;;;;7.94;72.59;99793.19;7368674;19;20045;-64
2024/03/05 07:14:03;;;;;;;0.08;0.08;;;;;;;7.93;71.89;99806.22;7364850;19;20006;-64
2024/03/05 07:16:31;;;;;;;0.05;0.05;;;;;;;7.89;72.67;99794.19;7370751;19;20008;-63
2024/03/05 07:18:57;;;;;;;0.10;0.10;;;;;;;7.86;72.89;99796.91;7370259;19;19998;-63
2024/03/05 07:21:24;;;;;;;0.13;0.13;;;;;;;7.83;73.43;99810.81;7365608;19;20017;-63
2024/03/05 07:23:52;;;;;;;0.10;0.10;;;;;;;7.82;73.28;99814.31;7371085;19;20010;-63
2024/03/05 07:26:17;;;;;;;0.10;0.10;;;;;;;7.78;72.88;99825.69;7371582;19;20002;-63
2024/03/05 07:28:43;;;;;;;0.10;0.10;;;;;;;7.57;73.11;99800.22;7357164;19;20002;-64
2024/03/05 07:31:09;;;;;;;0.10;0.10;;;;;;;7.71;73.51;99837.13;7370738;19;20010;-63
2024/03/05 07:33:35;;;;;;;0.10;0.10;;;;;;;7.70;73.52;99845.78;7366506;19;20002;-64
2024/03/05 07:36:01;;;;;;;0.00;0.00;;;;;;;7.68;74.06;99858.84;7371348;19;20411;-63
2024/03/05 07:38:27;;;;;;;0.10;0.10;;;;;;;7.66;74.19;99850.22;7361762;19;19995;-64
2024/03/05 07:40:52;;;;;;;0.10;0.10;;;;;;;7.51;73.86;99841.06;7371269;19;20003;-62
2024/03/05 07:43:17;;;;;;;0.10;0.10;;;;;;;7.62;74.22;99884.13;7361923;19;20023;-64
2024/03/05 07:45:43;;;;;;;0.10;0.10;;;;;;;7.61;74.43;99916.19;7369773;19;20641;-63
2024/03/05 07:48:11;;;;;;;0.10;0.10;;;;;;;7.59;74.38;99889.38;7365892;19;20014;-63
2024/03/05 07:50:38;;;;;;;0.10;0.10;;;;;;;7.57;74.57;99901.56;7372074;19;20070;-63
2024/03/05 07:53:03;;;;;;;0.10;0.10;;;;;;;7.42;74.83;99900.16;7368460;19;20112;-64
2024/03/05 07:55:29;;;;;;;0.10;0.10;;;;;;;7.53;74.45;99932.78;7371914;19;20074;-64
2024/03/05 07:57:56;;;;;;;0.10;0.10;;;;;;;7.38;74.55;99901.97;7363898;19;20010;-63
2024/03/05 08:00:23;;;;;;;0.00;0.00;;;;;;;7.50;74.68;99932.88;7369548;19;20561;-64
2024/03/05 08:02:50;;;;;;;0.10;0.10;;;;;;;7.52;75.06;99944.06;7364579;19;20016;-64
2024/03/05 08:05:17;;;;;;;0.10;0.10;;;;;;;7.43;75.00;99946.88;7368537;19;20849;-63
2024/03/05 08:07:45;;;;;;;0.10;0.10;;;;;;;7.46;74.74;99956.34;7366173;19;20032;-63
2024/03/05 08:10:12;;;;;;;0.10;0.10;;;;;;;7.52;74.84;99961.41;7369632;19;20466;-63
2024/03/05 08:12:39;;;;;;;0.00;0.00;;;;;;;7.52;74.74;99990.84;7361714;19;20038;-65
2024/03/05 08:15:06;;;;;;;0.10;0.10;;;;;;;7.53;74.96;99963.97;7369350;19;20442;-63
2024/03/05 08:17:33;;;;;;;0.10;0.10;;;;;;;7.53;75.29;99974.34;7366273;19;20021;-63
2024/03/05 08:19:59;;;;;;;0.10;0.10;;;;;;;7.51;75.37;99986.53;7367218;19;20059;-63
2024/03/05 08:22:25;;;;;;;0.00;0.00;;;;;;;7.53;75.76;99984.75;7363556;19;20073;-63
2024/03/05 08:24:50;;;;;;;0.10;0.10;;;;;;;7.57;75.52;100001.13;7369002;19;20010;-63
2024/03/05 08:27:16;;;;;;;0.00;0.00;;;;;;;7.60;75.90;100000.19;7362845;19;20014;-63
2024/03/05 08:29:42;;;;;;;0.10;0.10;;;;;;;7.61;75.79;100007.13;7369486;19;20005;-63
2024/03/05 08:32:09;;;;;;;0.10;0.10;;;;;;;7.62;75.95;100020.09;7364414;19;20015;-63
2024/03/05 08:34:37;;;;;;;0.10;0.10;;;;;;;7.66;76.12;100026.06;7366244;19;19998;-63
2024/03/05 08:37:03;;;;;;;0.10;0.10;;;;;;;7.67;76.07;100033.84;7364460;19;21071;-63
2024/03/05 08:39:28;;;;;;;0.10;0.10;;;;;;;7.69;75.92;100044.19;7367082;19;20007;-62
2024/03/05 08:41:53;;;;;;;0.10;0.10;;;;;;;7.72;76.30;100041.53;7364287;19;19995;-63
2024/03/05 08:44:19;;;;;;;0.10;0.10;;;;;;;7.75;76.39;100070.03;7368219;19;20523;-63
2024/03/05 08:46:44;;;;;;;0.10;0.10;;;;;;;7.77;76.37;100070.88;7365899;19;20478;-63
2024/03/05 08:49:10;;;;;;;0.10;0.10;;;;;;;7.78;76.13;100077.78;7367605;19;20010;-63
2024/03/05 08:51:39;;;;;;;0.10;0.10;;;;;;;7.81;76.49;100075.13;7368985;19;19999;-63
2024/03/05 08:54:08;;;;;;;0.10;0.10;;;;;;;7.84;76.40;100082.00;7365399;19;19994;-63
2024/03/05 08:56:37;;;;;;;0.10;0.10;;;;;;;7.85;76.56;100089.75;7363662;19;21088;-63
2024/03/05 08:59:06;;;;;;;0.08;0.08;;;;;;;7.86;76.06;100106.22;7366722;19;20957;-63
2024/03/05 09:01:34;;;;;;;0.10;0.10;;;;;;;7.89;76.19;100106.13;7369207;19;20010;-63
2024/03/05 09:04:06;;;;;;;0.10;0.10;;;;;;;7.88;76.22;100100.09;7367800;19;20007;-63
2024/03/05 09:06:32;;;;;;;0.10;0.10;;;;;;;7.90;76.49;100105.25;7363902;19;20713;-66
2024/03/05 09:08:58;;;;;;;0.10;0.10;;;;;;;7.91;76.16;100115.63;7369635;19;20006;-63
2024/03/05 09:11:24;;;;;;;0.10;0.10;;;;;;;7.91;76.61;100118.22;7366508;19;19999;-63
2024/03/05 09:13:49;;;;;;;0.10;0.10;;;;;;;7.90;76.68;100119.09;7367771;19;19999;-63
2024/03/05 09:16:14;;;;;;;0.10;0.10;;;;;;;7.95;76.47;100143.25;7367386;19;20003;-63
2024/03/05 09:18:40;;;;;;;0.10;0.10;;;;;;;7.96;76.41;100142.38;7362395;19;20003;-63
2024/03/05 09:21:11;;;;;;;0.10;0.10;;;;;;;8.02;76.32;100144.00;7365424;19;20456;-64
2024/03/05 09:23:38;;;;;;;0.10;0.10;;;;;;;8.03;76.65;100162.16;7365466;19;20009;-64
2024/03/05 09:26:03;;;;;;;0.10;0.10;;;;;;;8.05;76.67;100165.56;7365774;19;20017;-64
2024/03/05 09:28:31;;;;;;;0.05;0.05;;;;;;;8.07;76.66;100162.97;7368165;19;20018;-64
2024/03/05 09:30:57;;;;;;;0.10;0.10;;;;;;;8.10;77.03;100173.28;7363749;19;20577;-64
2024/03/05 09:33:24;;;;;;;0.10;0.10;;;;;;;8.14;77.04;100179.28;7360848;19;20073;-65
2024/03/05 09:35:49;;;;;;;0.05;0.05;;;;;;;8.17;76.99;100193.09;7364690;19;20011;-64
2024/03/05 09:38:16;;;;;;;0.10;0.10;;;;;;;8.21;76.80;100189.53;7365698;19;20013;-64
2024/03/05 09:40:42;;;;;;;0.00;0.00;;;;;;;8.25;76.97;100195.50;7364227;19;20763;-64
2024/03/05 09:43:07;;;;;;;0.10;0.10;;;;;;;8.28;76.73;100198.06;7367842;19;20029;-65
2024/03/05 09:45:37;;;;;;;0.10;0.10;;;;;;;8.28;76.69;100192.84;7357747;19;20510;-65
2024/03/05 09:48:04;;;;;;;0.10;0.10;;;;;;;8.36;76.76;100205.69;7365853;19;20003;-65
2024/03/05 09:50:31;;;;;;;0.10;0.10;;;;;;;8.40;76.75;100220.38;7365944;19;20037;-65
2024/03/05 09:52:59;;;;;;;0.10;0.10;;;;;;;8.35;76.80;100210.03;7363060;19;20010;-65
2024/03/05 09:55:25;;;;;;;0.10;0.10;;;;;;;8.47;77.08;100246.25;7364159;19;20110;-65
2024/03/05 09:57:53;;;;;;;0.10;0.10;;;;;;;8.55;77.21;100257.31;7363723;19;20085;-65
2024/03/05 10:00:20;;;;;;;0.10;0.10;;;;;;;8.57;76.89;100239.97;7363506;19;20033;-65
2024/03/05 10:02:47;;;;;;;0.10;0.10;;;;;;;8.49;77.04;100233.19;7365042;19;20088;-65
2024/03/05 10:05:15;;;;;;;0.10;0.10;;;;;;;8.63;77.07;100251.97;7362900;19;20505;-65
2024/03/05 10:07:41;;;;;;;;;;;;;;;8.71;77.05;100250.03;7369043;19;20020;-65
2024/03/05 10:10:07;;;;;;;0.10;0.10;;;;;;;8.71;76.91;100257.84;7364725;19;19963;-66
2024/03/05 10:12:34;;;;;;;0.10;0.10;;;;;;;8.62;76.63;100259.78;7365589;19;20377;-66
2024/03/05 10:15:20;;;;;;;0.10;0.10;;;;;;;8.77;76.79;100280.31;7367161;19;20482;-66
2024/03/05 10:17:49;;;;;;;0.10;0.10;;;;;;;8.74;76.86;100289.03;7365661;19;20086;-66
2024/03/05 10:20:36;;;;;;;0.08;0.08;;;;;;;8.77;76.71;100296.78;7368693;19;20427;-66
2024/03/05 10:23:03;;;;;;;0.10;0.10;;;;;;;8.75;76.73;100302.91;7339888;19;20009;-66
2024/03/05 10:25:30;;;;;;;0.10;0.10;;;;;;;8.75;76.50;100318.53;7363857;19;20019;-66
2024/03/05 10:27:55;;;;;;;0.10;0.10;;;;;;;8.73;76.78;100326.38;7364859;19;20010;-66
2024/03/05 10:30:29;;;;;;;0.10;0.10;;;;;;;8.74;76.87;100337.63;7366876;19;20023;-66
2024/03/05 10:32:56;;;;;;;0.10;0.10;;;;;;;8.74;76.69;100332.44;7364024;19;20002;-66
2024/03/05 10:35:23;;;;;;;0.10;0.10;;;;;;;8.70;77.05;100351.59;7365026;19;20764;-66
2024/03/05 10:37:56;;;;;;;0.10;0.10;;;;;;;8.76;76.99;100354.06;7363465;19;20082;-66
2024/03/05 10:40:23;;;;;;;0.10;0.10;;;;;;;8.74;76.99;100354.13;7361947;19;20015;-66
2024/03/05 10:42:51;;;;;;;0.10;0.10;;;;;;;8.77;77.01;100366.22;7363302;19;20431;-66
2024/03/05 10:45:19;;;;;;;0.10;0.10;;;;;;;8.77;76.83;100364.47;7354542;19;20082;-66
2024/03/05 10:47:47;;;;;;;0.10;0.10;;;;;;;8.77;76.81;100371.44;7362575;19;20735;-66
2024/03/05 10:50:13;;;;;;;0.10;0.10;;;;;;;8.81;77.01;100370.44;7362599;19;20015;-66
2024/03/05 10:52:40;;;;;;;0.10;0.10;;;;;;;8.85;77.42;100385.13;7360543;19;20023;-66
2024/03/05 10:55:11;;;;;;;0.10;0.10;;;;;;;8.84;77.48;100373.00;7362202;19;20010;-66
2024/03/05 10:58:13;;;;;;;0.10;0.10;;;;;;;8.78;77.35;100367.94;7358565;19;20098;-67
2024/03/05 11:00:24;;;;;;;0.10;0.10;;;;;;;8.96;77.50;100385.75;7357211;19;20410;-66
2024/03/05 11:02:52;;;;;;;0.10;0.10;;;;;;;8.94;77.46;100381.50;7363389;19;20009;-66
2024/03/05 11:05:19;;;;;;;0.10;0.10;;;;;;;9.10;77.25;100404.56;7363967;19;20014;-66
2024/03/05 11:07:47;;;;;;;0.10;0.10;;;;;;;9.18;77.32;100416.59;7366675;19;19998;-66
2024/03/05 11:10:13;;;;;;;0.08;0.08;;;;;;;9.18;77.55;100390.53;7369238;19;20043;-66
2024/03/05 11:12:42;;;;;;;0.10;0.10;;;;;;;9.27;77.26;100417.22;7366112;19;20760;-66
2024/03/05 11:15:12;;;;;;;0.10;0.10;;;;;;;9.34;77.26;100423.16;7367631;19;19998;-66
2024/03/05 11:17:38;;;;;;;0.05;0.05;;;;;;;9.40;77.53;100417.81;7364796;19;20014;-66
2024/03/05 11:20:06;;;;;;;0.10;0.10;;;;;;;9.42;77.60;100413.41;7366328;19;20038;-67
2024/03/05 11:22:34;;;;;;;0.00;0.00;;;;;;;9.54;77.32;100413.16;7369444;19;20449;-66
2024/03/05 11:25:01;;;;;;;0.10;0.10;;;;;;;9.54;77.75;100426.19;7366819;19;20103;-66
2024/03/05 11:27:29;;;;;;;0.10;0.10;;;;;;;9.70;77.53;100444.06;7369107;19;20006;-66
2024/03/05 11:30:11;;;;;;;0.10;0.10;;;;;;;9.77;77.39;100432.59;7364834;19;20592;-66
2024/03/05 11:32:37;;;;;;;0.08;0.08;;;;;;;9.67;77.29;100415.47;7368337;19;20034;-67
2024/03/05 11:35:07;;;;;;;0.10;0.10;;;;;;;9.81;77.36;100440.31;7368013;19;20015;-67
2024/03/05 11:37:47;;;;;;;0.10;0.10;;;;;;;9.84;77.16;100445.47;7368954;19;20009;-66
2024/03/05 11:40:14;;;;;;;0.10;0.10;;;;;;;9.91;77.11;100466.19;7369297;19;20020;-65